sensor_id;sensor_type;location;lat;lon;timestamp;P1;durP1;ratioP1;P2;durP2;ratioP2
4422;SDS011;2224;49.814;8.650;2022-08-19T00:02:02;19.60;;;17.60;;
4422;SDS011;2224;49.814;8.650;2022-08-19T00:04:29;22.03;;;19.87;;
4422;SDS011;2224;49.814;8.650;2022-08-19T00:06:58;20.13;;;18.17;;
4422;SDS011;2224;49.814;8.650;2022-08-19T00:09:24;20.50;;;18.50;;
4422;SDS011;2224;49.814;8.650;2022-08-19T00:11:50;20.60;;;17.53;;
4422;SDS011;2224;49.814;8.650;2022-08-19T00:14:16;20.23;;;18.33;;
4422;SDS011;2224;49.814;8.650;2022-08-19T00:16:44;19.37;;;17.47;;
4422;SDS011;2224;49.814;8.650;2022-08-19T00:19:10;20.17;;;18.27;;
4422;SDS011;2224;49.814;8.650;2022-08-19T00:21:36;20.47;;;18.37;;
4422;SDS011;2224;49.814;8.650;2022-08-19T00:24:04;20.00;;;18.00;;
4422;SDS011;2224;49.814;8.650;2022-08-19T00:26:30;20.73;;;18.63;;
4422;SDS011;2224;49.814;8.650;2022-08-19T00:28:55;21.67;;;19.57;;
4422;SDS011;2224;49.814;8.650;2022-08-19T00:31:21;20.23;;;18.30;;
4422;SDS011;2224;49.814;8.650;2022-08-19T00:33:46;20.10;;;18.00;;
4422;SDS011;2224;49.814;8.650;2022-08-19T00:36:12;21.70;;;19.27;;
4422;SDS011;2224;49.814;8.650;2022-08-19T00:38:38;19.90;;;17.90;;
4422;SDS011;2224;49.814;8.650;2022-08-19T00:41:08;19.93;;;17.83;;
4422;SDS011;2224;49.814;8.650;2022-08-19T00:43:35;20.23;;;18.23;;
4422;SDS011;2224;49.814;8.650;2022-08-19T00:46:00;20.33;;;18.30;;
4422;SDS011;2224;49.814;8.650;2022-08-19T00:48:29;18.90;;;17.10;;
4422;SDS011;2224;49.814;8.650;2022-08-19T00:50:54;18.67;;;16.83;;
4422;SDS011;2224;49.814;8.650;2022-08-19T00:53:21;19.60;;;17.53;;
4422;SDS011;2224;49.814;8.650;2022-08-19T00:55:51;19.07;;;17.23;;
4422;SDS011;2224;49.814;8.650;2022-08-19T00:58:19;20.53;;;18.37;;
4422;SDS011;2224;49.814;8.650;2022-08-19T01:00:46;19.70;;;17.63;;
4422;SDS011;2224;49.814;8.650;2022-08-19T01:03:13;20.40;;;18.33;;
4422;SDS011;2224;49.814;8.650;2022-08-19T01:05:42;18.93;;;17.10;;
4422;SDS011;2224;49.814;8.650;2022-08-19T01:08:08;19.63;;;17.73;;
4422;SDS011;2224;49.814;8.650;2022-08-19T01:10:39;18.30;;;16.40;;
4422;SDS011;2224;49.814;8.650;2022-08-19T01:13:07;17.10;;;15.40;;
4422;SDS011;2224;49.814;8.650;2022-08-19T01:15:34;19.60;;;17.63;;
4422;SDS011;2224;49.814;8.650;2022-08-19T01:18:16;19.63;;;17.53;;
4422;SDS011;2224;49.814;8.650;2022-08-19T01:20:43;18.27;;;16.37;;
4422;SDS011;2224;49.814;8.650;2022-08-19T01:23:09;20.53;;;18.40;;
4422;SDS011;2224;49.814;8.650;2022-08-19T01:25:38;18.17;;;16.47;;
4422;SDS011;2224;49.814;8.650;2022-08-19T01:28:14;20.53;;;18.43;;
4422;SDS011;2224;49.814;8.650;2022-08-19T01:30:45;19.10;;;17.23;;
4422;SDS011;2224;49.814;8.650;2022-08-19T01:33:11;18.97;;;17.00;;
4422;SDS011;2224;49.814;8.650;2022-08-19T01:35:36;20.00;;;18.00;;
4422;SDS011;2224;49.814;8.650;2022-08-19T01:38:04;20.27;;;18.17;;
4422;SDS011;2224;49.814;8.650;2022-08-19T01:40:33;19.23;;;17.37;;
4422;SDS011;2224;49.814;8.650;2022-08-19T01:42:59;21.00;;;18.80;;
4422;SDS011;2224;49.814;8.650;2022-08-19T01:45:26;19.73;;;17.73;;
4422;SDS011;2224;49.814;8.650;2022-08-19T01:47:53;19.87;;;17.90;;
4422;SDS011;2224;49.814;8.650;2022-08-19T01:50:19;18.57;;;16.70;;
4422;SDS011;2224;49.814;8.650;2022-08-19T01:52:44;21.67;;;19.57;;
4422;SDS011;2224;49.814;8.650;2022-08-19T01:55:12;20.07;;;18.07;;
4422;SDS011;2224;49.814;8.650;2022-08-19T01:57:40;22.07;;;19.80;;
4422;SDS011;2224;49.814;8.650;2022-08-19T02:00:08;21.27;;;19.10;;
4422;SDS011;2224;49.814;8.650;2022-08-19T02:02:35;22.43;;;18.87;;
4422;SDS011;2224;49.814;8.650;2022-08-19T02:05:00;21.10;;;18.90;;
4422;SDS011;2224;49.814;8.650;2022-08-19T02:07:25;21.47;;;19.27;;
4422;SDS011;2224;49.814;8.650;2022-08-19T02:09:53;21.27;;;19.07;;
4422;SDS011;2224;49.814;8.650;2022-08-19T02:12:19;20.40;;;18.40;;
4422;SDS011;2224;49.814;8.650;2022-08-19T02:14:45;21.03;;;18.77;;
4422;SDS011;2224;49.814;8.650;2022-08-19T02:17:11;20.63;;;18.47;;
4422;SDS011;2224;49.814;8.650;2022-08-19T02:19:36;19.23;;;17.33;;
4422;SDS011;2224;49.814;8.650;2022-08-19T02:22:02;22.33;;;20.07;;
4422;SDS011;2224;49.814;8.650;2022-08-19T02:24:27;21.50;;;18.40;;
4422;SDS011;2224;49.814;8.650;2022-08-19T02:26:53;19.30;;;17.50;;
4422;SDS011;2224;49.814;8.650;2022-08-19T02:29:18;20.90;;;18.80;;
4422;SDS011;2224;49.814;8.650;2022-08-19T02:31:44;19.20;;;17.20;;
4422;SDS011;2224;49.814;8.650;2022-08-19T02:34:09;20.10;;;17.40;;
4422;SDS011;2224;49.814;8.650;2022-08-19T02:36:34;19.80;;;17.80;;
4422;SDS011;2224;49.814;8.650;2022-08-19T02:39:00;19.73;;;17.73;;
4422;SDS011;2224;49.814;8.650;2022-08-19T02:41:26;19.17;;;17.27;;
4422;SDS011;2224;49.814;8.650;2022-08-19T02:43:57;19.77;;;17.77;;
4422;SDS011;2224;49.814;8.650;2022-08-19T02:46:24;21.40;;;19.17;;
4422;SDS011;2224;49.814;8.650;2022-08-19T02:48:52;21.60;;;18.63;;
4422;SDS011;2224;49.814;8.650;2022-08-19T02:51:20;20.13;;;18.13;;
4422;SDS011;2224;49.814;8.650;2022-08-19T02:53:47;20.57;;;18.27;;
4422;SDS011;2224;49.814;8.650;2022-08-19T02:56:13;20.53;;;18.53;;
4422;SDS011;2224;49.814;8.650;2022-08-19T02:58:38;19.60;;;17.70;;
4422;SDS011;2224;49.814;8.650;2022-08-19T03:01:04;20.87;;;18.67;;
4422;SDS011;2224;49.814;8.650;2022-08-19T03:03:29;20.30;;;18.30;;
4422;SDS011;2224;49.814;8.650;2022-08-19T03:06:08;20.77;;;18.77;;
4422;SDS011;2224;49.814;8.650;2022-08-19T03:08:38;22.03;;;19.83;;
4422;SDS011;2224;49.814;8.650;2022-08-19T03:11:04;21.17;;;19.13;;
4422;SDS011;2224;49.814;8.650;2022-08-19T03:13:29;19.60;;;17.50;;
4422;SDS011;2224;49.814;8.650;2022-08-19T03:15:55;19.63;;;17.63;;
4422;SDS011;2224;49.814;8.650;2022-08-19T03:18:20;19.83;;;17.83;;
4422;SDS011;2224;49.814;8.650;2022-08-19T03:20:47;19.60;;;17.60;;
4422;SDS011;2224;49.814;8.650;2022-08-19T03:23:13;19.57;;;17.57;;
4422;SDS011;2224;49.814;8.650;2022-08-19T03:25:40;19.83;;;17.90;;
4422;SDS011;2224;49.814;8.650;2022-08-19T03:28:09;19.60;;;17.70;;
4422;SDS011;2224;49.814;8.650;2022-08-19T03:30:35;20.57;;;18.37;;
4422;SDS011;2224;49.814;8.650;2022-08-19T03:33:00;20.50;;;17.77;;
4422;SDS011;2224;49.814;8.650;2022-08-19T03:35:27;19.90;;;17.80;;
4422;SDS011;2224;49.814;8.650;2022-08-19T03:37:52;21.50;;;19.30;;
4422;SDS011;2224;49.814;8.650;2022-08-19T03:40:18;21.90;;;19.60;;
4422;SDS011;2224;49.814;8.650;2022-08-19T03:42:43;20.00;;;18.00;;
4422;SDS011;2224;49.814;8.650;2022-08-19T03:45:09;21.60;;;19.30;;
4422;SDS011;2224;49.814;8.650;2022-08-19T03:47:35;21.50;;;19.40;;
4422;SDS011;2224;49.814;8.650;2022-08-19T03:50:02;20.97;;;19.03;;
4422;SDS011;2224;49.814;8.650;2022-08-19T03:52:27;21.03;;;18.63;;
4422;SDS011;2224;49.814;8.650;2022-08-19T03:54:52;21.60;;;19.40;;
4422;SDS011;2224;49.814;8.650;2022-08-19T03:57:18;21.57;;;19.43;;
4422;SDS011;2224;49.814;8.650;2022-08-19T03:59:43;21.90;;;19.73;;
4422;SDS011;2224;49.814;8.650;2022-08-19T04:02:10;22.03;;;19.73;;
4422;SDS011;2224;49.814;8.650;2022-08-19T04:04:37;23.37;;;20.87;;
4422;SDS011;2224;49.814;8.650;2022-08-19T04:07:03;21.63;;;19.50;;
4422;SDS011;2224;49.814;8.650;2022-08-19T04:09:29;23.40;;;20.33;;
4422;SDS011;2224;49.814;8.650;2022-08-19T04:11:55;23.23;;;20.60;;
4422;SDS011;2224;49.814;8.650;2022-08-19T04:14:23;22.73;;;20.50;;
4422;SDS011;2224;49.814;8.650;2022-08-19T04:16:53;23.80;;;21.33;;
4422;SDS011;2224;49.814;8.650;2022-08-19T04:19:18;22.60;;;20.20;;
4422;SDS011;2224;49.814;8.650;2022-08-19T04:21:45;22.27;;;20.03;;
4422;SDS011;2224;49.814;8.650;2022-08-19T04:24:12;22.30;;;20.00;;
4422;SDS011;2224;49.814;8.650;2022-08-19T04:26:38;22.53;;;20.30;;
4422;SDS011;2224;49.814;8.650;2022-08-19T04:29:06;23.40;;;20.80;;
4422;SDS011;2224;49.814;8.650;2022-08-19T04:31:34;23.07;;;20.67;;
4422;SDS011;2224;49.814;8.650;2022-08-19T04:34:04;22.77;;;20.47;;
4422;SDS011;2224;49.814;8.650;2022-08-19T04:36:31;23.00;;;20.10;;
4422;SDS011;2224;49.814;8.650;2022-08-19T04:39:00;23.53;;;21.23;;
4422;SDS011;2224;49.814;8.650;2022-08-19T04:41:30;24.70;;;22.10;;
4422;SDS011;2224;49.814;8.650;2022-08-19T04:44:14;22.00;;;19.80;;
4422;SDS011;2224;49.814;8.650;2022-08-19T04:46:43;21.00;;;18.80;;
4422;SDS011;2224;49.814;8.650;2022-08-19T04:49:08;21.23;;;19.23;;
4422;SDS011;2224;49.814;8.650;2022-08-19T04:51:34;19.73;;;17.83;;
4422;SDS011;2224;49.814;8.650;2022-08-19T04:54:01;21.87;;;19.70;;
4422;SDS011;2224;49.814;8.650;2022-08-19T04:56:27;21.77;;;19.33;;
4422;SDS011;2224;49.814;8.650;2022-08-19T04:58:53;22.23;;;19.90;;
4422;SDS011;2224;49.814;8.650;2022-08-19T05:01:20;19.10;;;17.20;;
4422;SDS011;2224;49.814;8.650;2022-08-19T05:03:49;19.67;;;17.57;;
4422;SDS011;2224;49.814;8.650;2022-08-19T05:06:15;20.20;;;18.10;;
4422;SDS011;2224;49.814;8.650;2022-08-19T05:08:42;18.97;;;16.97;;
4422;SDS011;2224;49.814;8.650;2022-08-19T05:11:18;20.10;;;18.10;;
4422;SDS011;2224;49.814;8.650;2022-08-19T05:13:46;20.93;;;18.83;;
4422;SDS011;2224;49.814;8.650;2022-08-19T05:16:13;21.50;;;18.57;;
4422;SDS011;2224;49.814;8.650;2022-08-19T05:18:39;20.83;;;18.67;;
4422;SDS011;2224;49.814;8.650;2022-08-19T05:21:24;22.07;;;19.73;;
4422;SDS011;2224;49.814;8.650;2022-08-19T05:24:08;22.20;;;20.00;;
4422;SDS011;2224;49.814;8.650;2022-08-19T05:26:34;20.93;;;18.73;;
4422;SDS011;2224;49.814;8.650;2022-08-19T05:29:00;20.90;;;17.57;;
4422;SDS011;2224;49.814;8.650;2022-08-19T05:31:26;20.57;;;17.00;;
4422;SDS011;2224;49.814;8.650;2022-08-19T05:33:51;22.93;;;18.53;;
4422;SDS011;2224;49.814;8.650;2022-08-19T05:36:16;20.20;;;18.17;;
4422;SDS011;2224;49.814;8.650;2022-08-19T05:38:43;23.37;;;20.10;;
4422;SDS011;2224;49.814;8.650;2022-08-19T05:41:09;21.93;;;18.73;;
4422;SDS011;2224;49.814;8.650;2022-08-19T05:43:35;21.30;;;19.10;;
4422;SDS011;2224;49.814;8.650;2022-08-19T05:46:02;20.40;;;17.50;;
4422;SDS011;2224;49.814;8.650;2022-08-19T05:48:30;20.87;;;18.80;;
4422;SDS011;2224;49.814;8.650;2022-08-19T05:50:56;21.50;;;19.40;;
4422;SDS011;2224;49.814;8.650;2022-08-19T05:53:21;22.70;;;20.53;;
4422;SDS011;2224;49.814;8.650;2022-08-19T05:55:47;21.47;;;19.33;;
4422;SDS011;2224;49.814;8.650;2022-08-19T05:58:12;22.13;;;19.87;;
4422;SDS011;2224;49.814;8.650;2022-08-19T06:00:38;19.60;;;17.70;;
4422;SDS011;2224;49.814;8.650;2022-08-19T06:03:04;20.83;;;18.30;;
4422;SDS011;2224;49.814;8.650;2022-08-19T06:05:30;22.13;;;19.30;;
4422;SDS011;2224;49.814;8.650;2022-08-19T06:07:56;20.67;;;18.57;;
4422;SDS011;2224;49.814;8.650;2022-08-19T06:10:21;21.87;;;19.57;;
4422;SDS011;2224;49.814;8.650;2022-08-19T06:12:47;21.90;;;18.90;;
4422;SDS011;2224;49.814;8.650;2022-08-19T06:15:13;20.20;;;18.20;;
4422;SDS011;2224;49.814;8.650;2022-08-19T06:17:39;20.20;;;18.10;;
4422;SDS011;2224;49.814;8.650;2022-08-19T06:20:07;19.63;;;17.63;;
4422;SDS011;2224;49.814;8.650;2022-08-19T06:22:41;20.80;;;16.77;;
4422;SDS011;2224;49.814;8.650;2022-08-19T06:25:08;19.27;;;17.37;;
4422;SDS011;2224;49.814;8.650;2022-08-19T06:27:34;19.57;;;17.57;;
4422;SDS011;2224;49.814;8.650;2022-08-19T06:30:00;18.47;;;16.50;;
4422;SDS011;2224;49.814;8.650;2022-08-19T06:32:26;19.90;;;17.67;;
4422;SDS011;2224;49.814;8.650;2022-08-19T06:34:51;18.00;;;16.20;;
4422;SDS011;2224;49.814;8.650;2022-08-19T06:37:17;17.60;;;15.97;;
4422;SDS011;2224;49.814;8.650;2022-08-19T06:39:42;17.47;;;15.70;;
4422;SDS011;2224;49.814;8.650;2022-08-19T06:42:09;16.63;;;14.60;;
4422;SDS011;2224;49.814;8.650;2022-08-19T06:44:36;18.70;;;15.40;;
4422;SDS011;2224;49.814;8.650;2022-08-19T06:47:04;17.30;;;15.30;;
4422;SDS011;2224;49.814;8.650;2022-08-19T06:49:31;15.73;;;14.03;;
4422;SDS011;2224;49.814;8.650;2022-08-19T06:51:57;17.07;;;15.47;;
4422;SDS011;2224;49.814;8.650;2022-08-19T06:54:23;15.30;;;13.90;;
4422;SDS011;2224;49.814;8.650;2022-08-19T06:56:49;16.13;;;14.47;;
4422;SDS011;2224;49.814;8.650;2022-08-19T06:59:16;15.63;;;14.20;;
4422;SDS011;2224;49.814;8.650;2022-08-19T07:01:43;16.93;;;15.33;;
4422;SDS011;2224;49.814;8.650;2022-08-19T07:04:12;14.23;;;12.83;;
4422;SDS011;2224;49.814;8.650;2022-08-19T07:06:38;14.47;;;13.13;;
4422;SDS011;2224;49.814;8.650;2022-08-19T07:09:04;15.10;;;13.10;;
4422;SDS011;2224;49.814;8.650;2022-08-19T07:11:30;14.27;;;11.90;;
4422;SDS011;2224;49.814;8.650;2022-08-19T07:13:56;12.40;;;10.73;;
4422;SDS011;2224;49.814;8.650;2022-08-19T07:16:21;12.00;;;10.00;;
4422;SDS011;2224;49.814;8.650;2022-08-19T07:18:50;17.87;;;11.13;;
4422;SDS011;2224;49.814;8.650;2022-08-19T07:21:17;12.27;;;11.07;;
4422;SDS011;2224;49.814;8.650;2022-08-19T07:23:44;12.60;;;11.47;;
4422;SDS011;2224;49.814;8.650;2022-08-19T07:26:14;13.93;;;11.87;;
4422;SDS011;2224;49.814;8.650;2022-08-19T07:28:46;13.23;;;11.47;;
4422;SDS011;2224;49.814;8.650;2022-08-19T07:31:13;16.20;;;11.50;;
4422;SDS011;2224;49.814;8.650;2022-08-19T07:33:40;12.50;;;11.30;;
4422;SDS011;2224;49.814;8.650;2022-08-19T07:36:08;13.83;;;11.70;;
4422;SDS011;2224;49.814;8.650;2022-08-19T07:38:36;13.13;;;11.17;;
4422;SDS011;2224;49.814;8.650;2022-08-19T07:41:02;13.60;;;11.50;;
4422;SDS011;2224;49.814;8.650;2022-08-19T07:43:27;13.53;;;11.17;;
4422;SDS011;2224;49.814;8.650;2022-08-19T07:45:53;13.03;;;11.50;;
4422;SDS011;2224;49.814;8.650;2022-08-19T07:48:22;12.20;;;11.00;;
4422;SDS011;2224;49.814;8.650;2022-08-19T07:50:52;12.97;;;11.73;;
4422;SDS011;2224;49.814;8.650;2022-08-19T07:53:22;12.37;;;11.07;;
4422;SDS011;2224;49.814;8.650;2022-08-19T07:55:48;13.80;;;11.30;;
4422;SDS011;2224;49.814;8.650;2022-08-19T07:58:16;13.73;;;11.23;;
4422;SDS011;2224;49.814;8.650;2022-08-19T08:00:44;11.10;;;10.00;;
4422;SDS011;2224;49.814;8.650;2022-08-19T08:03:10;15.50;;;11.07;;
4422;SDS011;2224;49.814;8.650;2022-08-19T08:05:36;10.60;;;9.63;;
4422;SDS011;2224;49.814;8.650;2022-08-19T08:08:19;10.00;;;8.50;;
4422;SDS011;2224;49.814;8.650;2022-08-19T08:11:04;10.23;;;9.33;;
4422;SDS011;2224;49.814;8.650;2022-08-19T08:13:30;10.87;;;9.73;;
4422;SDS011;2224;49.814;8.650;2022-08-19T08:15:55;10.20;;;9.30;;
4422;SDS011;2224;49.814;8.650;2022-08-19T08:18:21;9.00;;;8.30;;
4422;SDS011;2224;49.814;8.650;2022-08-19T08:20:48;9.87;;;8.90;;
4422;SDS011;2224;49.814;8.650;2022-08-19T08:23:13;10.33;;;8.60;;
4422;SDS011;2224;49.814;8.650;2022-08-19T08:25:50;11.37;;;7.87;;
4422;SDS011;2224;49.814;8.650;2022-08-19T08:28:17;9.00;;;8.10;;
4422;SDS011;2224;49.814;8.650;2022-08-19T08:30:44;8.90;;;8.00;;
4422;SDS011;2224;49.814;8.650;2022-08-19T08:33:10;9.13;;;8.27;;
4422;SDS011;2224;49.814;8.650;2022-08-19T08:35:36;7.87;;;7.10;;
4422;SDS011;2224;49.814;8.650;2022-08-19T08:38:02;6.97;;;6.30;;
4422;SDS011;2224;49.814;8.650;2022-08-19T08:43:08;6.03;;;5.53;;
4422;SDS011;2224;49.814;8.650;2022-08-19T08:45:36;7.50;;;6.13;;
4422;SDS011;2224;49.814;8.650;2022-08-19T08:48:11;6.80;;;5.90;;
4422;SDS011;2224;49.814;8.650;2022-08-19T08:50:48;6.50;;;5.90;;
4422;SDS011;2224;49.814;8.650;2022-08-19T08:53:17;7.60;;;6.90;;
4422;SDS011;2224;49.814;8.650;2022-08-19T08:55:44;6.90;;;6.30;;
4422;SDS011;2224;49.814;8.650;2022-08-19T08:58:16;6.70;;;6.20;;
4422;SDS011;2224;49.814;8.650;2022-08-19T09:00:50;7.53;;;6.90;;
4422;SDS011;2224;49.814;8.650;2022-08-19T09:03:22;8.63;;;7.50;;
4422;SDS011;2224;49.814;8.650;2022-08-19T09:08:36;6.80;;;6.20;;
4422;SDS011;2224;49.814;8.650;2022-08-19T09:16:35;6.63;;;6.03;;
4422;SDS011;2224;49.814;8.650;2022-08-19T09:19:02;5.97;;;5.43;;
4422;SDS011;2224;49.814;8.650;2022-08-19T09:21:29;7.23;;;6.63;;
4422;SDS011;2224;49.814;8.650;2022-08-19T09:23:54;7.20;;;6.60;;
4422;SDS011;2224;49.814;8.650;2022-08-19T09:26:20;7.30;;;6.70;;
4422;SDS011;2224;49.814;8.650;2022-08-19T09:28:48;7.27;;;6.57;;
4422;SDS011;2224;49.814;8.650;2022-08-19T09:31:15;6.70;;;6.03;;
4422;SDS011;2224;49.814;8.650;2022-08-19T09:33:42;9.30;;;7.53;;
4422;SDS011;2224;49.814;8.650;2022-08-19T09:36:09;8.57;;;7.77;;
4422;SDS011;2224;49.814;8.650;2022-08-19T09:38:36;8.43;;;7.50;;
4422;SDS011;2224;49.814;8.650;2022-08-19T09:41:06;8.10;;;7.30;;
4422;SDS011;2224;49.814;8.650;2022-08-19T09:43:33;11.07;;;8.10;;
4422;SDS011;2224;49.814;8.650;2022-08-19T09:46:01;9.03;;;7.23;;
4422;SDS011;2224;49.814;8.650;2022-08-19T09:48:27;7.73;;;7.00;;
4422;SDS011;2224;49.814;8.650;2022-08-19T09:50:53;8.33;;;7.63;;
4422;SDS011;2224;49.814;8.650;2022-08-19T09:53:18;7.67;;;6.97;;
4422;SDS011;2224;49.814;8.650;2022-08-19T09:55:47;8.53;;;7.73;;
4422;SDS011;2224;49.814;8.650;2022-08-19T09:58:12;8.50;;;7.70;;
4422;SDS011;2224;49.814;8.650;2022-08-19T10:00:38;8.83;;;7.70;;
4422;SDS011;2224;49.814;8.650;2022-08-19T10:03:03;8.57;;;7.40;;
4422;SDS011;2224;49.814;8.650;2022-08-19T10:05:29;9.47;;;8.03;;
4422;SDS011;2224;49.814;8.650;2022-08-19T10:08:12;9.17;;;8.27;;
4422;SDS011;2224;49.814;8.650;2022-08-19T10:10:38;10.27;;;9.30;;
4422;SDS011;2224;49.814;8.650;2022-08-19T10:13:03;10.70;;;9.60;;
4422;SDS011;2224;49.814;8.650;2022-08-19T10:15:29;10.60;;;8.70;;
4422;SDS011;2224;49.814;8.650;2022-08-19T10:17:55;11.07;;;9.53;;
4422;SDS011;2224;49.814;8.650;2022-08-19T10:20:20;10.50;;;9.50;;
4422;SDS011;2224;49.814;8.650;2022-08-19T10:22:47;10.33;;;9.43;;
4422;SDS011;2224;49.814;8.650;2022-08-19T10:25:12;10.73;;;9.77;;
4422;SDS011;2224;49.814;8.650;2022-08-19T10:27:39;11.47;;;10.37;;
4422;SDS011;2224;49.814;8.650;2022-08-19T10:30:04;9.93;;;9.13;;
4422;SDS011;2224;49.814;8.650;2022-08-19T10:32:31;10.17;;;9.37;;
4422;SDS011;2224;49.814;8.650;2022-08-19T10:34:56;10.60;;;9.27;;
4422;SDS011;2224;49.814;8.650;2022-08-19T10:37:22;10.17;;;9.10;;
4422;SDS011;2224;49.814;8.650;2022-08-19T10:39:47;13.47;;;10.30;;
4422;SDS011;2224;49.814;8.650;2022-08-19T10:42:13;10.60;;;9.57;;
4422;SDS011;2224;49.814;8.650;2022-08-19T10:44:39;9.73;;;8.93;;
4422;SDS011;2224;49.814;8.650;2022-08-19T10:47:04;8.80;;;8.10;;
4422;SDS011;2224;49.814;8.650;2022-08-19T10:49:30;10.20;;;9.20;;
4422;SDS011;2224;49.814;8.650;2022-08-19T10:51:56;8.80;;;8.00;;
4422;SDS011;2224;49.814;8.650;2022-08-19T10:54:40;9.03;;;8.27;;
4422;SDS011;2224;49.814;8.650;2022-08-19T10:57:24;9.23;;;8.43;;
4422;SDS011;2224;49.814;8.650;2022-08-19T10:59:54;9.70;;;8.90;;
4422;SDS011;2224;49.814;8.650;2022-08-19T11:02:20;9.20;;;8.50;;
4422;SDS011;2224;49.814;8.650;2022-08-19T11:04:46;10.10;;;9.10;;
4422;SDS011;2224;49.814;8.650;2022-08-19T11:07:12;10.80;;;9.70;;
4422;SDS011;2224;49.814;8.650;2022-08-19T11:09:39;10.33;;;9.53;;
4422;SDS011;2224;49.814;8.650;2022-08-19T11:12:06;10.33;;;9.00;;
4422;SDS011;2224;49.814;8.650;2022-08-19T11:14:33;10.80;;;9.53;;
4422;SDS011;2224;49.814;8.650;2022-08-19T11:16:58;10.63;;;8.83;;
4422;SDS011;2224;49.814;8.650;2022-08-19T11:19:24;9.53;;;8.63;;
4422;SDS011;2224;49.814;8.650;2022-08-19T11:21:49;9.77;;;8.97;;
4422;SDS011;2224;49.814;8.650;2022-08-19T11:24:19;10.20;;;9.20;;
4422;SDS011;2224;49.814;8.650;2022-08-19T11:26:47;10.30;;;9.07;;
4422;SDS011;2224;49.814;8.650;2022-08-19T11:29:14;11.77;;;9.47;;
4422;SDS011;2224;49.814;8.650;2022-08-19T11:31:43;10.03;;;9.13;;
4422;SDS011;2224;49.814;8.650;2022-08-19T11:34:11;10.83;;;9.83;;
4422;SDS011;2224;49.814;8.650;2022-08-19T11:36:38;9.37;;;8.57;;
4422;SDS011;2224;49.814;8.650;2022-08-19T11:39:06;9.20;;;8.50;;
4422;SDS011;2224;49.814;8.650;2022-08-19T11:41:32;12.00;;;10.80;;
4422;SDS011;2224;49.814;8.650;2022-08-19T11:43:57;11.43;;;10.53;;
4422;SDS011;2224;49.814;8.650;2022-08-19T11:46:24;10.83;;;9.90;;
4422;SDS011;2224;49.814;8.650;2022-08-19T11:48:50;8.70;;;8.00;;
4422;SDS011;2224;49.814;8.650;2022-08-19T11:51:20;9.70;;;8.97;;
4422;SDS011;2224;49.814;8.650;2022-08-19T11:53:47;9.97;;;9.17;;
4422;SDS011;2224;49.814;8.650;2022-08-19T11:56:13;10.87;;;9.83;;
4422;SDS011;2224;49.814;8.650;2022-08-19T11:58:38;10.50;;;9.60;;
4422;SDS011;2224;49.814;8.650;2022-08-19T12:01:10;10.87;;;9.97;;
4422;SDS011;2224;49.814;8.650;2022-08-19T12:03:37;10.33;;;9.50;;
4422;SDS011;2224;49.814;8.650;2022-08-19T12:06:06;11.10;;;10.20;;
4422;SDS011;2224;49.814;8.650;2022-08-19T12:08:33;11.40;;;10.40;;
4422;SDS011;2224;49.814;8.650;2022-08-19T12:10:58;13.83;;;12.43;;
4422;SDS011;2224;49.814;8.650;2022-08-19T12:13:26;11.87;;;10.97;;
4422;SDS011;2224;49.814;8.650;2022-08-19T12:15:52;12.70;;;11.40;;
4422;SDS011;2224;49.814;8.650;2022-08-19T12:18:18;13.00;;;11.67;;
4422;SDS011;2224;49.814;8.650;2022-08-19T12:20:44;12.30;;;11.40;;
4422;SDS011;2224;49.814;8.650;2022-08-19T12:23:10;11.83;;;10.70;;
4422;SDS011;2224;49.814;8.650;2022-08-19T12:25:36;12.77;;;11.47;;
4422;SDS011;2224;49.814;8.650;2022-08-19T12:28:03;11.53;;;10.67;;
4422;SDS011;2224;49.814;8.650;2022-08-19T12:30:28;10.90;;;10.10;;
4422;SDS011;2224;49.814;8.650;2022-08-19T12:32:54;11.07;;;10.17;;
4422;SDS011;2224;49.814;8.650;2022-08-19T12:35:19;12.10;;;11.10;;
4422;SDS011;2224;49.814;8.650;2022-08-19T12:37:45;10.50;;;9.70;;
4422;SDS011;2224;49.814;8.650;2022-08-19T12:40:12;11.80;;;10.80;;
4422;SDS011;2224;49.814;8.650;2022-08-19T12:42:38;11.23;;;10.33;;
4422;SDS011;2224;49.814;8.650;2022-08-19T12:45:11;10.97;;;10.13;;
4422;SDS011;2224;49.814;8.650;2022-08-19T12:47:37;9.90;;;9.10;;
4422;SDS011;2224;49.814;8.650;2022-08-19T12:50:03;9.40;;;8.60;;
4422;SDS011;2224;49.814;8.650;2022-08-19T12:52:33;8.47;;;7.77;;
4422;SDS011;2224;49.814;8.650;2022-08-19T12:54:58;7.00;;;6.30;;
4422;SDS011;2224;49.814;8.650;2022-08-19T12:57:25;7.60;;;7.00;;
4422;SDS011;2224;49.814;8.650;2022-08-19T12:59:52;7.47;;;6.87;;
4422;SDS011;2224;49.814;8.650;2022-08-19T13:02:18;6.53;;;6.03;;
4422;SDS011;2224;49.814;8.650;2022-08-19T13:04:44;7.43;;;6.83;;
4422;SDS011;2224;49.814;8.650;2022-08-19T13:07:10;8.40;;;7.70;;
4422;SDS011;2224;49.814;8.650;2022-08-19T13:09:35;7.40;;;6.70;;
4422;SDS011;2224;49.814;8.650;2022-08-19T13:12:01;8.07;;;7.37;;
4422;SDS011;2224;49.814;8.650;2022-08-19T13:14:29;7.30;;;6.70;;
4422;SDS011;2224;49.814;8.650;2022-08-19T13:16:56;7.37;;;6.87;;
4422;SDS011;2224;49.814;8.650;2022-08-19T13:19:22;6.70;;;6.20;;
4422;SDS011;2224;49.814;8.650;2022-08-19T13:21:51;6.93;;;6.23;;
4422;SDS011;2224;49.814;8.650;2022-08-19T13:24:17;6.40;;;5.87;;
4422;SDS011;2224;49.814;8.650;2022-08-19T13:26:43;7.10;;;6.60;;
4422;SDS011;2224;49.814;8.650;2022-08-19T13:29:08;7.27;;;6.63;;
4422;SDS011;2224;49.814;8.650;2022-08-19T13:31:52;7.40;;;6.80;;
4422;SDS011;2224;49.814;8.650;2022-08-19T13:34:36;6.10;;;5.70;;
4422;SDS011;2224;49.814;8.650;2022-08-19T13:37:02;6.60;;;6.10;;
4422;SDS011;2224;49.814;8.650;2022-08-19T13:39:28;6.80;;;6.30;;
4422;SDS011;2224;49.814;8.650;2022-08-19T13:41:54;5.90;;;5.50;;
4422;SDS011;2224;49.814;8.650;2022-08-19T13:44:20;6.67;;;6.03;;
4422;SDS011;2224;49.814;8.650;2022-08-19T13:46:46;7.60;;;5.37;;
4422;SDS011;2224;49.814;8.650;2022-08-19T13:49:13;6.13;;;5.53;;
4422;SDS011;2224;49.814;8.650;2022-08-19T13:51:40;6.03;;;5.53;;
4422;SDS011;2224;49.814;8.650;2022-08-19T13:54:06;6.80;;;6.30;;
4422;SDS011;2224;49.814;8.650;2022-08-19T13:56:31;5.40;;;5.10;;
4422;SDS011;2224;49.814;8.650;2022-08-19T13:58:57;6.50;;;5.83;;
4422;SDS011;2224;49.814;8.650;2022-08-19T14:01:22;5.40;;;5.00;;
4422;SDS011;2224;49.814;8.650;2022-08-19T14:03:48;5.03;;;4.50;;
4422;SDS011;2224;49.814;8.650;2022-08-19T14:06:14;5.40;;;5.00;;
4422;SDS011;2224;49.814;8.650;2022-08-19T14:08:39;5.47;;;5.00;;
4422;SDS011;2224;49.814;8.650;2022-08-19T14:11:06;5.13;;;4.63;;
4422;SDS011;2224;49.814;8.650;2022-08-19T14:13:32;5.50;;;4.93;;
4422;SDS011;2224;49.814;8.650;2022-08-19T14:15:58;5.00;;;4.50;;
4422;SDS011;2224;49.814;8.650;2022-08-19T14:18:24;5.03;;;4.63;;
4422;SDS011;2224;49.814;8.650;2022-08-19T14:20:50;4.93;;;3.93;;
4422;SDS011;2224;49.814;8.650;2022-08-19T14:23:16;4.43;;;4.13;;
4422;SDS011;2224;49.814;8.650;2022-08-19T14:25:41;4.23;;;3.93;;
4422;SDS011;2224;49.814;8.650;2022-08-19T14:28:07;4.33;;;3.83;;
4422;SDS011;2224;49.814;8.650;2022-08-19T14:30:34;4.30;;;4.00;;
4422;SDS011;2224;49.814;8.650;2022-08-19T14:33:02;6.47;;;4.20;;
4422;SDS011;2224;49.814;8.650;2022-08-19T14:35:29;5.23;;;4.50;;
4422;SDS011;2224;49.814;8.650;2022-08-19T14:37:59;4.80;;;4.40;;
4422;SDS011;2224;49.814;8.650;2022-08-19T14:40:26;4.77;;;4.37;;
4422;SDS011;2224;49.814;8.650;2022-08-19T14:42:58;6.10;;;5.50;;
4422;SDS011;2224;49.814;8.650;2022-08-19T14:45:26;5.23;;;4.77;;
4422;SDS011;2224;49.814;8.650;2022-08-19T14:47:53;4.90;;;4.33;;
4422;SDS011;2224;49.814;8.650;2022-08-19T14:50:18;5.13;;;4.73;;
4422;SDS011;2224;49.814;8.650;2022-08-19T14:52:45;5.47;;;5.07;;
4422;SDS011;2224;49.814;8.650;2022-08-19T14:55:11;5.50;;;5.10;;
4422;SDS011;2224;49.814;8.650;2022-08-19T14:57:36;5.70;;;5.20;;
4422;SDS011;2224;49.814;8.650;2022-08-19T15:00:03;6.30;;;5.50;;
4422;SDS011;2224;49.814;8.650;2022-08-19T15:02:29;5.80;;;5.40;;
4422;SDS011;2224;49.814;8.650;2022-08-19T15:04:54;6.33;;;5.70;;
4422;SDS011;2224;49.814;8.650;2022-08-19T15:07:20;5.90;;;5.50;;
4422;SDS011;2224;49.814;8.650;2022-08-19T15:09:48;6.90;;;6.20;;